sensor_id;sensor_type;location;lat;lon;timestamp;P1;durP1;ratioP1;P2;durP2;ratioP2
63217;SDS011;49314;48.278;16.378;2023-09-07T00:00:19;10.30;;;9.60;;
63217;SDS011;49314;48.278;16.378;2023-09-07T00:02:44;10.48;;;9.68;;
63217;SDS011;49314;48.278;16.378;2023-09-07T00:05:10;9.85;;;9.15;;
63217;SDS011;49314;48.278;16.378;2023-09-07T00:07:35;10.75;;;9.85;;
63217;SDS011;49314;48.278;16.378;2023-09-07T00:10:01;11.23;;;10.52;;
63217;SDS011;49314;48.278;16.378;2023-09-07T00:12:26;10.38;;;9.70;;
63217;SDS011;49314;48.278;16.378;2023-09-07T00:14:54;11.10;;;10.27;;
63217;SDS011;49314;48.278;16.378;2023-09-07T00:17:20;10.65;;;9.63;;
63217;SDS011;49314;48.278;16.378;2023-09-07T00:19:45;9.65;;;9.05;;
63217;SDS011;49314;48.278;16.378;2023-09-07T00:22:13;10.50;;;9.90;;
63217;SDS011;49314;48.278;16.378;2023-09-07T00:24:39;10.77;;;10.17;;
63217;SDS011;49314;48.278;16.378;2023-09-07T00:27:04;10.70;;;10.03;;
63217;SDS011;49314;48.278;16.378;2023-09-07T00:29:31;10.95;;;10.15;;
63217;SDS011;49314;48.278;16.378;2023-09-07T00:31:56;10.85;;;10.25;;
63217;SDS011;49314;48.278;16.378;2023-09-07T00:34:21;11.73;;;10.90;;
63217;SDS011;49314;48.278;16.378;2023-09-07T00:36:46;11.40;;;10.60;;
63217;SDS011;49314;48.278;16.378;2023-09-07T00:39:12;10.87;;;9.97;;
63217;SDS011;49314;48.278;16.378;2023-09-07T00:41:37;11.88;;;10.60;;
63217;SDS011;49314;48.278;16.378;2023-09-07T00:44:03;10.70;;;9.93;;
63217;SDS011;49314;48.278;16.378;2023-09-07T00:46:28;13.15;;;9.98;;
63217;SDS011;49314;48.278;16.378;2023-09-07T00:48:53;10.33;;;9.73;;
63217;SDS011;49314;48.278;16.378;2023-09-07T00:51:18;11.50;;;10.85;;
63217;SDS011;49314;48.278;16.378;2023-09-07T00:53:44;10.77;;;10.03;;
63217;SDS011;49314;48.278;16.378;2023-09-07T00:56:09;12.70;;;11.90;;
63217;SDS011;49314;48.278;16.378;2023-09-07T00:58:34;13.15;;;12.07;;
63217;SDS011;49314;48.278;16.378;2023-09-07T01:00:59;12.77;;;11.82;;
63217;SDS011;49314;48.278;16.378;2023-09-07T01:03:25;12.18;;;11.43;;
63217;SDS011;49314;48.278;16.378;2023-09-07T01:08:55;13.30;;;12.40;;
63217;SDS011;49314;48.278;16.378;2023-09-07T01:11:22;11.02;;;10.13;;
63217;SDS011;49314;48.278;16.378;2023-09-07T01:13:51;13.02;;;12.23;;
63217;SDS011;49314;48.278;16.378;2023-09-07T01:16:18;12.73;;;11.70;;
63217;SDS011;49314;48.278;16.378;2023-09-07T01:18:45;11.77;;;10.85;;
63217;SDS011;49314;48.278;16.378;2023-09-07T01:21:10;13.43;;;12.63;;
63217;SDS011;49314;48.278;16.378;2023-09-07T01:23:36;11.52;;;10.77;;
63217;SDS011;49314;48.278;16.378;2023-09-07T01:26:02;12.38;;;11.68;;
63217;SDS011;49314;48.278;16.378;2023-09-07T01:28:28;13.90;;;13.07;;
63217;SDS011;49314;48.278;16.378;2023-09-07T01:30:53;11.40;;;10.40;;
63217;SDS011;49314;48.278;16.378;2023-09-07T01:33:18;11.25;;;10.55;;
63217;SDS011;49314;48.278;16.378;2023-09-07T01:35:43;11.10;;;10.40;;
63217;SDS011;49314;48.278;16.378;2023-09-07T01:38:09;10.30;;;9.60;;
63217;SDS011;49314;48.278;16.378;2023-09-07T01:40:35;11.90;;;11.17;;
63217;SDS011;49314;48.278;16.378;2023-09-07T01:43:00;12.43;;;11.70;;
63217;SDS011;49314;48.278;16.378;2023-09-07T01:45:25;10.53;;;9.83;;
63217;SDS011;49314;48.278;16.378;2023-09-07T01:47:51;11.95;;;11.27;;
63217;SDS011;49314;48.278;16.378;2023-09-07T01:50:17;12.95;;;12.00;;
63217;SDS011;49314;48.278;16.378;2023-09-07T01:52:42;9.90;;;9.23;;
63217;SDS011;49314;48.278;16.378;2023-09-07T01:55:07;10.43;;;9.55;;
63217;SDS011;49314;48.278;16.378;2023-09-07T01:57:32;10.65;;;9.93;;
63217;SDS011;49314;48.278;16.378;2023-09-07T01:59:58;10.97;;;10.27;;
63217;SDS011;49314;48.278;16.378;2023-09-07T02:02:23;11.00;;;10.37;;
63217;SDS011;49314;48.278;16.378;2023-09-07T02:04:48;12.90;;;12.05;;
63217;SDS011;49314;48.278;16.378;2023-09-07T02:07:13;11.73;;;11.13;;
63217;SDS011;49314;48.278;16.378;2023-09-07T02:09:39;11.07;;;10.40;;
63217;SDS011;49314;48.278;16.378;2023-09-07T02:12:05;11.02;;;10.43;;
63217;SDS011;49314;48.278;16.378;2023-09-07T02:14:30;11.75;;;11.05;;
63217;SDS011;49314;48.278;16.378;2023-09-07T02:16:56;11.18;;;10.38;;
63217;SDS011;49314;48.278;16.378;2023-09-07T02:19:21;12.55;;;11.85;;
63217;SDS011;49314;48.278;16.378;2023-09-07T02:21:48;11.38;;;10.68;;
63217;SDS011;49314;48.278;16.378;2023-09-07T02:24:13;13.02;;;12.18;;
63217;SDS011;49314;48.278;16.378;2023-09-07T02:26:39;10.87;;;10.20;;
63217;SDS011;49314;48.278;16.378;2023-09-07T02:29:09;11.43;;;10.75;;
63217;SDS011;49314;48.278;16.378;2023-09-07T02:31:35;10.98;;;9.88;;
63217;SDS011;49314;48.278;16.378;2023-09-07T02:34:00;12.00;;;11.30;;
63217;SDS011;49314;48.278;16.378;2023-09-07T02:36:25;10.97;;;10.07;;
63217;SDS011;49314;48.278;16.378;2023-09-07T02:38:50;12.67;;;11.80;;
63217;SDS011;49314;48.278;16.378;2023-09-07T02:41:16;11.03;;;10.03;;
63217;SDS011;49314;48.278;16.378;2023-09-07T02:43:41;13.47;;;12.67;;
63217;SDS011;49314;48.278;16.378;2023-09-07T02:46:06;11.10;;;10.50;;
63217;SDS011;49314;48.278;16.378;2023-09-07T02:48:31;13.33;;;12.43;;
63217;SDS011;49314;48.278;16.378;2023-09-07T02:50:57;11.98;;;11.18;;
63217;SDS011;49314;48.278;16.378;2023-09-07T02:53:23;11.77;;;10.80;;
63217;SDS011;49314;48.278;16.378;2023-09-07T02:55:49;12.45;;;11.57;;
63217;SDS011;49314;48.278;16.378;2023-09-07T02:58:14;11.60;;;10.50;;
63217;SDS011;49314;48.278;16.378;2023-09-07T03:00:42;12.93;;;12.18;;
63217;SDS011;49314;48.278;16.378;2023-09-07T03:03:09;12.00;;;11.25;;
63217;SDS011;49314;48.278;16.378;2023-09-07T03:05:34;14.02;;;13.25;;
63217;SDS011;49314;48.278;16.378;2023-09-07T03:07:59;13.65;;;12.73;;
63217;SDS011;49314;48.278;16.378;2023-09-07T03:10:24;14.07;;;13.23;;
63217;SDS011;49314;48.278;16.378;2023-09-07T03:12:50;13.40;;;12.60;;
63217;SDS011;49314;48.278;16.378;2023-09-07T03:15:16;12.35;;;11.55;;
63217;SDS011;49314;48.278;16.378;2023-09-07T03:17:41;11.75;;;10.95;;
63217;SDS011;49314;48.278;16.378;2023-09-07T03:20:07;10.77;;;10.07;;
63217;SDS011;49314;48.278;16.378;2023-09-07T03:22:39;12.65;;;11.85;;
63217;SDS011;49314;48.278;16.378;2023-09-07T03:25:05;14.82;;;14.02;;
63217;SDS011;49314;48.278;16.378;2023-09-07T03:27:30;12.30;;;11.50;;
63217;SDS011;49314;48.278;16.378;2023-09-07T03:29:55;13.43;;;12.52;;
63217;SDS011;49314;48.278;16.378;2023-09-07T03:32:20;10.50;;;9.80;;
63217;SDS011;49314;48.278;16.378;2023-09-07T03:34:46;14.33;;;13.53;;
63217;SDS011;49314;48.278;16.378;2023-09-07T03:37:11;11.63;;;10.82;;
63217;SDS011;49314;48.278;16.378;2023-09-07T03:39:36;11.68;;;10.93;;
63217;SDS011;49314;48.278;16.378;2023-09-07T03:42:01;10.53;;;9.87;;
63217;SDS011;49314;48.278;16.378;2023-09-07T03:44:27;14.32;;;13.10;;
63217;SDS011;49314;48.278;16.378;2023-09-07T03:46:52;12.93;;;12.10;;
63217;SDS011;49314;48.278;16.378;2023-09-07T03:49:17;12.87;;;12.00;;
63217;SDS011;49314;48.278;16.378;2023-09-07T03:51:42;12.00;;;11.27;;
63217;SDS011;49314;48.278;16.378;2023-09-07T03:54:08;11.88;;;11.27;;
63217;SDS011;49314;48.278;16.378;2023-09-07T03:56:33;12.57;;;11.77;;
63217;SDS011;49314;48.278;16.378;2023-09-07T03:58:59;13.35;;;12.48;;
63217;SDS011;49314;48.278;16.378;2023-09-07T04:01:24;13.37;;;12.50;;
63217;SDS011;49314;48.278;16.378;2023-09-07T04:03:50;14.60;;;13.63;;
63217;SDS011;49314;48.278;16.378;2023-09-07T04:06:15;12.10;;;11.40;;
63217;SDS011;49314;48.278;16.378;2023-09-07T04:08:40;13.00;;;12.10;;
63217;SDS011;49314;48.278;16.378;2023-09-07T04:11:05;14.50;;;13.47;;
63217;SDS011;49314;48.278;16.378;2023-09-07T04:13:31;13.77;;;12.67;;
63217;SDS011;49314;48.278;16.378;2023-09-07T04:15:56;13.63;;;12.75;;
63217;SDS011;49314;48.278;16.378;2023-09-07T04:18:22;12.90;;;12.05;;
63217;SDS011;49314;48.278;16.378;2023-09-07T04:20:47;15.95;;;15.05;;
63217;SDS011;49314;48.278;16.378;2023-09-07T04:23:12;14.13;;;13.25;;
63217;SDS011;49314;48.278;16.378;2023-09-07T04:25:37;13.82;;;12.93;;
63217;SDS011;49314;48.278;16.378;2023-09-07T04:28:05;13.25;;;12.35;;
63217;SDS011;49314;48.278;16.378;2023-09-07T04:30:32;12.68;;;11.80;;
63217;SDS011;49314;48.278;16.378;2023-09-07T04:32:57;13.80;;;13.00;;
63217;SDS011;49314;48.278;16.378;2023-09-07T04:35:27;13.47;;;12.47;;
63217;SDS011;49314;48.278;16.378;2023-09-07T04:37:53;12.90;;;12.20;;
63217;SDS011;49314;48.278;16.378;2023-09-07T04:40:19;11.15;;;10.27;;
63217;SDS011;49314;48.278;16.378;2023-09-07T04:42:44;15.13;;;13.85;;
63217;SDS011;49314;48.278;16.378;2023-09-07T04:45:10;12.55;;;11.65;;
63217;SDS011;49314;48.278;16.378;2023-09-07T04:47:35;13.13;;;12.18;;
63217;SDS011;49314;48.278;16.378;2023-09-07T04:50:02;12.98;;;12.07;;
63217;SDS011;49314;48.278;16.378;2023-09-07T04:52:29;13.50;;;12.40;;
63217;SDS011;49314;48.278;16.378;2023-09-07T04:54:54;14.90;;;13.80;;
63217;SDS011;49314;48.278;16.378;2023-09-07T04:57:19;12.68;;;11.52;;
63217;SDS011;49314;48.278;16.378;2023-09-07T04:59:45;13.95;;;13.00;;
63217;SDS011;49314;48.278;16.378;2023-09-07T05:02:10;15.35;;;14.13;;
63217;SDS011;49314;48.278;16.378;2023-09-07T05:04:36;15.20;;;13.88;;
63217;SDS011;49314;48.278;16.378;2023-09-07T05:07:02;14.13;;;13.07;;
63217;SDS011;49314;48.278;16.378;2023-09-07T05:09:27;12.77;;;11.77;;
63217;SDS011;49314;48.278;16.378;2023-09-07T05:11:54;15.10;;;14.00;;
63217;SDS011;49314;48.278;16.378;2023-09-07T05:14:19;12.38;;;11.35;;
63217;SDS011;49314;48.278;16.378;2023-09-07T05:16:45;12.95;;;11.98;;
63217;SDS011;49314;48.278;16.378;2023-09-07T05:19:10;12.87;;;11.67;;
63217;SDS011;49314;48.278;16.378;2023-09-07T05:21:35;14.93;;;13.73;;
63217;SDS011;49314;48.278;16.378;2023-09-07T05:24:00;13.88;;;12.60;;
63217;SDS011;49314;48.278;16.378;2023-09-07T05:26:26;15.02;;;13.68;;
63217;SDS011;49314;48.278;16.378;2023-09-07T05:28:51;13.13;;;12.10;;
63217;SDS011;49314;48.278;16.378;2023-09-07T05:31:16;12.55;;;11.40;;
63217;SDS011;49314;48.278;16.378;2023-09-07T05:33:41;13.63;;;12.30;;
63217;SDS011;49314;48.278;16.378;2023-09-07T05:36:07;12.93;;;11.53;;
63217;SDS011;49314;48.278;16.378;2023-09-07T05:38:32;12.25;;;11.23;;
63217;SDS011;49314;48.278;16.378;2023-09-07T05:40:57;12.02;;;11.07;;
63217;SDS011;49314;48.278;16.378;2023-09-07T05:43:23;11.50;;;10.38;;
63217;SDS011;49314;48.278;16.378;2023-09-07T05:45:48;12.50;;;11.05;;
63217;SDS011;49314;48.278;16.378;2023-09-07T05:48:13;10.35;;;9.45;;
63217;SDS011;49314;48.278;16.378;2023-09-07T05:50:42;10.27;;;9.38;;
63217;SDS011;49314;48.278;16.378;2023-09-07T05:53:07;10.40;;;9.48;;
63217;SDS011;49314;48.278;16.378;2023-09-07T05:55:32;11.25;;;10.13;;
63217;SDS011;49314;48.278;16.378;2023-09-07T05:57:58;11.43;;;10.32;;
63217;SDS011;49314;48.278;16.378;2023-09-07T06:00:23;11.32;;;10.43;;
63217;SDS011;49314;48.278;16.378;2023-09-07T06:02:49;11.50;;;10.50;;
63217;SDS011;49314;48.278;16.378;2023-09-07T06:05:14;10.98;;;10.02;;
63217;SDS011;49314;48.278;16.378;2023-09-07T06:07:39;11.95;;;10.82;;
63217;SDS011;49314;48.278;16.378;2023-09-07T06:10:05;11.17;;;9.37;;
63217;SDS011;49314;48.278;16.378;2023-09-07T06:12:30;12.77;;;11.60;;
63217;SDS011;49314;48.278;16.378;2023-09-07T06:14:56;12.25;;;11.13;;
63217;SDS011;49314;48.278;16.378;2023-09-07T06:17:21;12.13;;;10.90;;
63217;SDS011;49314;48.278;16.378;2023-09-07T06:19:46;12.50;;;11.40;;
63217;SDS011;49314;48.278;16.378;2023-09-07T06:22:11;13.37;;;12.03;;
63217;SDS011;49314;48.278;16.378;2023-09-07T06:24:37;12.40;;;11.02;;
63217;SDS011;49314;48.278;16.378;2023-09-07T06:27:02;13.83;;;12.53;;
63217;SDS011;49314;48.278;16.378;2023-09-07T06:29:27;13.02;;;11.38;;
63217;SDS011;49314;48.278;16.378;2023-09-07T06:31:52;10.55;;;9.75;;
63217;SDS011;49314;48.278;16.378;2023-09-07T06:34:18;10.30;;;9.50;;
63217;SDS011;49314;48.278;16.378;2023-09-07T06:36:43;10.50;;;9.60;;
63217;SDS011;49314;48.278;16.378;2023-09-07T06:39:08;11.40;;;10.40;;
63217;SDS011;49314;48.278;16.378;2023-09-07T06:41:34;10.07;;;9.15;;
63217;SDS011;49314;48.278;16.378;2023-09-07T06:43:59;9.13;;;8.23;;
63217;SDS011;49314;48.278;16.378;2023-09-07T06:46:24;10.40;;;9.27;;
63217;SDS011;49314;48.278;16.378;2023-09-07T06:48:50;9.33;;;8.40;;
63217;SDS011;49314;48.278;16.378;2023-09-07T06:51:15;9.07;;;8.37;;
63217;SDS011;49314;48.278;16.378;2023-09-07T06:53:40;9.53;;;8.63;;
63217;SDS011;49314;48.278;16.378;2023-09-07T06:56:06;9.50;;;8.70;;
63217;SDS011;49314;48.278;16.378;2023-09-07T06:58:31;9.80;;;8.90;;
63217;SDS011;49314;48.278;16.378;2023-09-07T07:00:59;9.20;;;8.30;;
63217;SDS011;49314;48.278;16.378;2023-09-07T07:03:28;10.13;;;9.23;;
63217;SDS011;49314;48.278;16.378;2023-09-07T07:05:53;11.27;;;9.85;;
63217;SDS011;49314;48.278;16.378;2023-09-07T07:08:19;30.13;;;10.63;;
63217;SDS011;49314;48.278;16.378;2023-09-07T07:10:44;9.40;;;8.67;;
63217;SDS011;49314;48.278;16.378;2023-09-07T07:13:09;12.13;;;7.67;;
63217;SDS011;49314;48.278;16.378;2023-09-07T07:15:35;7.53;;;6.82;;
63217;SDS011;49314;48.278;16.378;2023-09-07T07:18:00;7.53;;;6.70;;
63217;SDS011;49314;48.278;16.378;2023-09-07T07:20:26;6.97;;;6.28;;
63217;SDS011;49314;48.278;16.378;2023-09-07T07:22:51;6.43;;;5.93;;
63217;SDS011;49314;48.278;16.378;2023-09-07T07:25:16;6.43;;;5.83;;
63217;SDS011;49314;48.278;16.378;2023-09-07T07:27:42;6.10;;;5.60;;
63217;SDS011;49314;48.278;16.378;2023-09-07T07:30:07;5.45;;;4.95;;
63217;SDS011;49314;48.278;16.378;2023-09-07T07:32:33;6.30;;;5.03;;
63217;SDS011;49314;48.278;16.378;2023-09-07T07:34:58;6.13;;;5.47;;
63217;SDS011;49314;48.278;16.378;2023-09-07T07:37:23;6.40;;;5.80;;
63217;SDS011;49314;48.278;16.378;2023-09-07T07:39:49;6.90;;;6.13;;
63217;SDS011;49314;48.278;16.378;2023-09-07T07:42:14;6.47;;;5.87;;
63217;SDS011;49314;48.278;16.378;2023-09-07T07:44:39;6.38;;;5.70;;
63217;SDS011;49314;48.278;16.378;2023-09-07T07:47:05;5.97;;;5.37;;
63217;SDS011;49314;48.278;16.378;2023-09-07T07:49:30;9.82;;;6.68;;
63217;SDS011;49314;48.278;16.378;2023-09-07T07:51:56;6.30;;;5.70;;
63217;SDS011;49314;48.278;16.378;2023-09-07T07:54:22;5.53;;;5.00;;
63217;SDS011;49314;48.278;16.378;2023-09-07T07:56:49;5.80;;;5.20;;
63217;SDS011;49314;48.278;16.378;2023-09-07T07:59:15;5.47;;;4.82;;
63217;SDS011;49314;48.278;16.378;2023-09-07T08:01:40;5.38;;;4.95;;
63217;SDS011;49314;48.278;16.378;2023-09-07T08:04:05;5.43;;;4.93;;
63217;SDS011;49314;48.278;16.378;2023-09-07T08:06:32;5.90;;;5.30;;
63217;SDS011;49314;48.278;16.378;2023-09-07T08:08:57;5.95;;;5.38;;
63217;SDS011;49314;48.278;16.378;2023-09-07T08:11:22;5.77;;;5.23;;
63217;SDS011;49314;48.278;16.378;2023-09-07T08:13:48;6.72;;;4.63;;
63217;SDS011;49314;48.278;16.378;2023-09-07T08:16:14;6.50;;;4.85;;
63217;SDS011;49314;48.278;16.378;2023-09-07T08:18:39;6.40;;;5.63;;
63217;SDS011;49314;48.278;16.378;2023-09-07T08:21:05;6.35;;;5.35;;
63217;SDS011;49314;48.278;16.378;2023-09-07T08:23:30;5.22;;;4.53;;
63217;SDS011;49314;48.278;16.378;2023-09-07T08:25:56;5.75;;;5.22;;
63217;SDS011;49314;48.278;16.378;2023-09-07T08:28:21;5.43;;;4.93;;
63217;SDS011;49314;48.278;16.378;2023-09-07T08:30:50;5.60;;;5.10;;
63217;SDS011;49314;48.278;16.378;2023-09-07T08:33:19;7.22;;;5.28;;
63217;SDS011;49314;48.278;16.378;2023-09-07T08:35:44;5.53;;;4.93;;
63217;SDS011;49314;48.278;16.378;2023-09-07T08:38:12;5.13;;;4.80;;
63217;SDS011;49314;48.278;16.378;2023-09-07T08:40:38;6.00;;;5.50;;
63217;SDS011;49314;48.278;16.378;2023-09-07T08:43:05;7.07;;;5.10;;
63217;SDS011;49314;48.278;16.378;2023-09-07T08:45:34;5.60;;;5.10;;
63217;SDS011;49314;48.278;16.378;2023-09-07T08:48:02;7.38;;;5.55;;
63217;SDS011;49314;48.278;16.378;2023-09-07T08:50:28;7.20;;;4.97;;
63217;SDS011;49314;48.278;16.378;2023-09-07T08:52:55;5.45;;;4.95;;
63217;SDS011;49314;48.278;16.378;2023-09-07T08:55:21;5.43;;;5.03;;
63217;SDS011;49314;48.278;16.378;2023-09-07T08:57:46;5.50;;;4.18;;
63217;SDS011;49314;48.278;16.378;2023-09-07T09:00:11;7.32;;;5.18;;
63217;SDS011;49314;48.278;16.378;2023-09-07T09:02:41;5.10;;;4.70;;
63217;SDS011;49314;48.278;16.378;2023-09-07T09:05:08;7.70;;;5.47;;
63217;SDS011;49314;48.278;16.378;2023-09-07T09:07:34;5.93;;;5.00;;
63217;SDS011;49314;48.278;16.378;2023-09-07T09:10:04;5.80;;;5.00;;
63217;SDS011;49314;48.278;16.378;2023-09-07T09:12:30;7.78;;;5.07;;
63217;SDS011;49314;48.278;16.378;2023-09-07T09:14:55;5.57;;;5.10;;
63217;SDS011;49314;48.278;16.378;2023-09-07T09:17:20;5.57;;;4.97;;
63217;SDS011;49314;48.278;16.378;2023-09-07T09:19:45;10.63;;;5.47;;
63217;SDS011;49314;48.278;16.378;2023-09-07T09:22:11;7.40;;;5.10;;
63217;SDS011;49314;48.278;16.378;2023-09-07T09:24:36;5.32;;;4.82;;
63217;SDS011;49314;48.278;16.378;2023-09-07T09:27:02;5.35;;;4.93;;
63217;SDS011;49314;48.278;16.378;2023-09-07T09:29:27;6.82;;;4.95;;
63217;SDS011;49314;48.278;16.378;2023-09-07T09:31:53;4.67;;;4.27;;
63217;SDS011;49314;48.278;16.378;2023-09-07T09:34:18;4.30;;;4.00;;
63217;SDS011;49314;48.278;16.378;2023-09-07T09:36:44;5.47;;;4.70;;
63217;SDS011;49314;48.278;16.378;2023-09-07T09:39:09;10.03;;;5.07;;
63217;SDS011;49314;48.278;16.378;2023-09-07T09:41:35;7.47;;;5.10;;
63217;SDS011;49314;48.278;16.378;2023-09-07T09:44:01;5.80;;;5.05;;
63217;SDS011;49314;48.278;16.378;2023-09-07T09:46:27;6.10;;;5.13;;
63217;SDS011;49314;48.278;16.378;2023-09-07T09:48:54;6.05;;;4.28;;
63217;SDS011;49314;48.278;16.378;2023-09-07T09:51:19;11.43;;;4.93;;
63217;SDS011;49314;48.278;16.378;2023-09-07T09:53:44;5.25;;;4.00;;
63217;SDS011;49314;48.278;16.378;2023-09-07T09:56:10;4.93;;;4.25;;
63217;SDS011;49314;48.278;16.378;2023-09-07T09:58:36;4.93;;;3.97;;
63217;SDS011;49314;48.278;16.378;2023-09-07T10:01:01;5.15;;;4.75;;
63217;SDS011;49314;48.278;16.378;2023-09-07T10:03:34;5.25;;;4.55;;
63217;SDS011;49314;48.278;16.378;2023-09-07T10:06:08;4.32;;;3.92;;
63217;SDS011;49314;48.278;16.378;2023-09-07T10:08:34;5.57;;;4.10;;
63217;SDS011;49314;48.278;16.378;2023-09-07T10:10:59;5.53;;;4.03;;
63217;SDS011;49314;48.278;16.378;2023-09-07T10:13:28;4.05;;;3.67;;
63217;SDS011;49314;48.278;16.378;2023-09-07T10:16:01;4.70;;;4.32;;
63217;SDS011;49314;48.278;16.378;2023-09-07T10:18:33;4.47;;;4.07;;
63217;SDS011;49314;48.278;16.378;2023-09-07T10:20:58;4.25;;;3.70;;
63217;SDS011;49314;48.278;16.378;2023-09-07T10:23:42;4.38;;;3.97;;
63217;SDS011;49314;48.278;16.378;2023-09-07T10:28:36;4.13;;;3.83;;
63217;SDS011;49314;48.278;16.378;2023-09-07T10:31:02;4.50;;;4.03;;
63217;SDS011;49314;48.278;16.378;2023-09-07T10:33:31;4.20;;;3.80;;
63217;SDS011;49314;48.278;16.378;2023-09-07T10:35:57;4.40;;;4.00;;
63217;SDS011;49314;48.278;16.378;2023-09-07T10:38:22;4.80;;;4.30;;
63217;SDS011;49314;48.278;16.378;2023-09-07T10:40:48;4.10;;;3.40;;
63217;SDS011;49314;48.278;16.378;2023-09-07T10:43:13;6.20;;;3.65;;
63217;SDS011;49314;48.278;16.378;2023-09-07T10:45:39;4.67;;;3.73;;
63217;SDS011;49314;48.278;16.378;2023-09-07T10:48:05;4.95;;;3.63;;
63217;SDS011;49314;48.278;16.378;2023-09-07T10:50:30;4.32;;;3.30;;
63217;SDS011;49314;48.278;16.378;2023-09-07T10:52:56;3.80;;;3.42;;
63217;SDS011;49314;48.278;16.378;2023-09-07T10:55:21;4.17;;;3.57;;
63217;SDS011;49314;48.278;16.378;2023-09-07T10:57:47;4.37;;;3.50;;
63217;SDS011;49314;48.278;16.378;2023-09-07T11:00:13;4.05;;;3.65;;
63217;SDS011;49314;48.278;16.378;2023-09-07T11:02:39;4.28;;;3.58;;
63217;SDS011;49314;48.278;16.378;2023-09-07T11:05:05;3.70;;;3.40;;
63217;SDS011;49314;48.278;16.378;2023-09-07T11:07:30;3.38;;;3.17;;
63217;SDS011;49314;48.278;16.378;2023-09-07T11:09:55;3.30;;;3.00;;
63217;SDS011;49314;48.278;16.378;2023-09-07T11:12:21;4.63;;;3.67;;
63217;SDS011;49314;48.278;16.378;2023-09-07T11:14:53;4.50;;;3.13;;
63217;SDS011;49314;48.278;16.378;2023-09-07T11:17:18;3.13;;;2.88;;
63217;SDS011;49314;48.278;16.378;2023-09-07T11:19:43;3.40;;;3.10;;
63217;SDS011;49314;48.278;16.378;2023-09-07T11:22:09;3.67;;;3.10;;
63217;SDS011;49314;48.278;16.378;2023-09-07T11:24:34;3.85;;;2.58;;
63217;SDS011;49314;48.278;16.378;2023-09-07T11:27:00;3.53;;;3.23;;
63217;SDS011;49314;48.278;16.378;2023-09-07T11:29:25;3.43;;;3.13;;
63217;SDS011;49314;48.278;16.378;2023-09-07T11:31:50;4.20;;;2.95;;
63217;SDS011;49314;48.278;16.378;2023-09-07T11:34:16;3.83;;;3.17;;
63217;SDS011;49314;48.278;16.378;2023-09-07T11:36:41;3.33;;;3.13;;
63217;SDS011;49314;48.278;16.378;2023-09-07T11:39:07;3.40;;;3.10;;
63217;SDS011;49314;48.278;16.378;2023-09-07T11:41:41;3.08;;;2.88;;
63217;SDS011;49314;48.278;16.378;2023-09-07T11:44:07;3.60;;;3.30;;
63217;SDS011;49314;48.278;16.378;2023-09-07T11:46:32;3.03;;;2.47;;
63217;SDS011;49314;48.278;16.378;2023-09-07T11:48:57;3.50;;;3.20;;
63217;SDS011;49314;48.278;16.378;2023-09-07T11:51:23;3.40;;;3.10;;
63217;SDS011;49314;48.278;16.378;2023-09-07T11:53:49;3.57;;;3.27;;
63217;SDS011;49314;48.278;16.378;2023-09-07T11:56:14;3.60;;;3.23;;
63217;SDS011;49314;48.278;16.378;2023-09-07T11:58:39;3.50;;;3.00;;
63217;SDS011;49314;48.278;16.378;2023-09-07T12:01:04;3.17;;;2.97;;
63217;SDS011;49314;48.278;16.378;2023-09-07T12:03:30;3.23;;;3.03;;
63217;SDS011;49314;48.278;16.378;2023-09-07T12:05:57;3.60;;;3.10;;
63217;SDS011;49314;48.278;16.378;2023-09-07T12:08:22;3.37;;;3.07;;
63217;SDS011;49314;48.278;16.378;2023-09-07T12:10:47;3.28;;;2.97;;
63217;SDS011;49314;48.278;16.378;2023-09-07T12:13:13;3.57;;;3.33;;
63217;SDS011;49314;48.278;16.378;2023-09-07T12:15:38;3.23;;;2.90;;
63217;SDS011;49314;48.278;16.378;2023-09-07T12:18:03;3.00;;;2.80;;
63217;SDS011;49314;48.278;16.378;2023-09-07T12:20:29;4.68;;;3.13;;
63217;SDS011;49314;48.278;16.378;2023-09-07T12:22:54;3.70;;;3.17;;
63217;SDS011;49314;48.278;16.378;2023-09-07T12:25:19;7.20;;;3.23;;
63217;SDS011;49314;48.278;16.378;2023-09-07T12:27:44;3.63;;;3.30;;
63217;SDS011;49314;48.278;16.378;2023-09-07T12:30:11;3.13;;;2.92;;
63217;SDS011;49314;48.278;16.378;2023-09-07T12:32:38;3.92;;;3.58;;
63217;SDS011;49314;48.278;16.378;2023-09-07T12:35:04;5.43;;;3.92;;
63217;SDS011;49314;48.278;16.378;2023-09-07T12:37:33;5.80;;;3.60;;
63217;SDS011;49314;48.278;16.378;2023-09-07T12:39:58;5.43;;;3.13;;
63217;SDS011;49314;48.278;16.378;2023-09-07T12:42:23;9.60;;;3.90;;
63217;SDS011;49314;48.278;16.378;2023-09-07T12:44:49;4.03;;;3.08;;
63217;SDS011;49314;48.278;16.378;2023-09-07T12:47:14;3.80;;;3.50;;
63217;SDS011;49314;48.278;16.378;2023-09-07T12:49:40;3.53;;;3.10;;
63217;SDS011;49314;48.278;16.378;2023-09-07T12:52:05;5.85;;;3.40;;
63217;SDS011;49314;48.278;16.378;2023-09-07T12:54:34;3.40;;;2.90;;
63217;SDS011;49314;48.278;16.378;2023-09-07T12:56:59;6.63;;;3.90;;
63217;SDS011;49314;48.278;16.378;2023-09-07T12:59:24;3.27;;;3.07;;
63217;SDS011;49314;48.278;16.378;2023-09-07T13:01:49;5.17;;;3.07;;
63217;SDS011;49314;48.278;16.378;2023-09-07T13:04:15;3.95;;;3.60;;
63217;SDS011;49314;48.278;16.378;2023-09-07T13:06:41;3.73;;;3.43;;
63217;SDS011;49314;48.278;16.378;2023-09-07T13:09:06;5.40;;;3.58;;
63217;SDS011;49314;48.278;16.378;2023-09-07T13:11:32;6.65;;;3.70;;
63217;SDS011;49314;48.278;16.378;2023-09-07T13:13:58;7.57;;;3.33;;
63217;SDS011;49314;48.278;16.378;2023-09-07T13:16:24;3.85;;;3.53;;
63217;SDS011;49314;48.278;16.378;2023-09-07T13:18:49;5.05;;;3.55;;
63217;SDS011;49314;48.278;16.378;2023-09-07T13:21:14;5.80;;;3.37;;
63217;SDS011;49314;48.278;16.378;2023-09-07T13:23:40;3.90;;;3.07;;
63217;SDS011;49314;48.278;16.378;2023-09-07T13:26:06;9.35;;;3.63;;
63217;SDS011;49314;48.278;16.378;2023-09-07T13:28:31;5.10;;;3.83;;
63217;SDS011;49314;48.278;16.378;2023-09-07T13:30:57;6.85;;;3.38;;
63217;SDS011;49314;48.278;16.378;2023-09-07T13:33:22;6.70;;;3.42;;
63217;SDS011;49314;48.278;16.378;2023-09-07T13:35:48;4.17;;;3.77;;
63217;SDS011;49314;48.278;16.378;2023-09-07T13:38:13;4.77;;;3.10;;
63217;SDS011;49314;48.278;16.378;2023-09-07T13:40:38;5.00;;;3.37;;
63217;SDS011;49314;48.278;16.378;2023-09-07T13:43:04;4.05;;;3.67;;
63217;SDS011;49314;48.278;16.378;2023-09-07T13:45:29;5.50;;;3.60;;
63217;SDS011;49314;48.278;16.378;2023-09-07T13:47:55;5.38;;;3.38;;
63217;SDS011;49314;48.278;16.378;2023-09-07T13:50:20;4.38;;;3.58;;
63217;SDS011;49314;48.278;16.378;2023-09-07T13:52:45;4.60;;;3.57;;
63217;SDS011;49314;48.278;16.378;2023-09-07T13:55:10;3.77;;;3.03;;
63217;SDS011;49314;48.278;16.378;2023-09-07T13:57:36;5.13;;;3.33;;
63217;SDS011;49314;48.278;16.378;2023-09-07T14:00:01;6.13;;;4.00;;
63217;SDS011;49314;48.278;16.378;2023-09-07T14:02:26;9.13;;;3.60;;
63217;SDS011;49314;48.278;16.378;2023-09-07T14:04:52;11.10;;;3.70;;
63217;SDS011;49314;48.278;16.378;2023-09-07T14:07:17;5.93;;;3.83;;
63217;SDS011;49314;48.278;16.378;2023-09-07T14:09:43;17.20;;;4.35;;
63217;SDS011;49314;48.278;16.378;2023-09-07T14:12:09;6.47;;;3.92;;
63217;SDS011;49314;48.278;16.378;2023-09-07T14:14:34;4.13;;;3.70;;
63217;SDS011;49314;48.278;16.378;2023-09-07T14:16:59;36.43;;;8.33;;
63217;SDS011;49314;48.278;16.378;2023-09-07T14:19:25;51.28;;;7.68;;